createdAt,value
2023-04-17T00:00:07.155Z,95211.63
2023-04-17T00:03:17.030Z,95205.28
2023-04-17T00:06:27.375Z,95213.03
2023-04-17T00:09:36.091Z,95217.47
2023-04-17T00:12:44.307Z,95213.72
2023-04-17T00:15:52.434Z,95214.31
2023-04-17T00:19:00.697Z,95208.00
2023-04-17T00:22:10.297Z,95207.69
2023-04-17T00:25:18.466Z,95200.25
2023-04-17T00:28:26.555Z,95202.81
2023-04-17T00:31:34.667Z,95203.03
2023-04-17T00:34:43.136Z,95205.28
2023-04-17T00:37:52.758Z,95206.09
2023-04-17T00:41:01.130Z,95202.22
2023-04-17T00:44:09.833Z,95204.91
2023-04-17T00:47:18.581Z,95203.09
2023-04-17T00:50:28.480Z,95201.66
2023-04-17T00:53:38.629Z,95204.66
2023-04-17T00:56:47.316Z,95194.19
2023-04-17T00:59:57.959Z,95196.88
2023-04-17T01:03:07.068Z,95194.81
2023-04-17T01:06:15.743Z,95189.19
2023-04-17T01:09:25.349Z,95185.44
2023-04-17T01:12:33.973Z,95191.97
2023-04-17T01:15:42.898Z,95182.84
2023-04-17T01:18:51.274Z,95196.06
2023-04-17T01:22:00.007Z,95191.22
2023-04-17T01:25:10.731Z,95193.09
2023-04-17T01:28:20.760Z,95188.97
2023-04-17T01:31:29.366Z,95194.25
2023-04-17T01:34:37.858Z,95194.53
2023-04-17T01:37:46.047Z,95189.88
2023-04-17T01:40:56.187Z,95194.84
2023-04-17T01:44:04.348Z,95187.94
2023-04-17T01:47:12.497Z,95196.66
2023-04-17T01:50:21.067Z,95197.50
2023-04-17T01:53:31.261Z,95201.47
2023-04-17T01:56:41.373Z,95197.16
2023-04-17T01:59:49.649Z,95199.28
2023-04-17T02:02:57.992Z,95198.13
2023-04-17T02:06:06.787Z,95202.56
2023-04-17T02:09:14.947Z,95190.16
2023-04-17T02:12:24.536Z,95198.63
2023-04-17T02:15:32.979Z,95194.91
2023-04-17T02:18:42.111Z,95190.25
2023-04-17T02:21:50.454Z,95191.19
2023-04-17T02:24:58.663Z,95188.00
2023-04-17T02:28:09.000Z,95187.59
2023-04-17T02:31:17.474Z,95189.44
2023-04-17T02:34:27.352Z,95188.53
2023-04-17T02:37:36.751Z,95197.28
2023-04-17T02:40:45.183Z,95195.63
2023-04-17T02:43:54.765Z,95202.63
2023-04-17T02:47:03.326Z,95194.66
2023-04-17T02:50:14.768Z,95196.09
2023-04-17T02:53:49.631Z,95197.50
2023-04-17T02:56:59.166Z,95185.19
2023-04-17T03:00:13.883Z,95187.41
2023-04-17T03:03:22.167Z,95181.47
2023-04-17T03:06:30.381Z,95189.22
2023-04-17T03:09:38.849Z,95189.22
2023-04-17T03:12:47.313Z,95193.91
2023-04-17T03:15:56.842Z,95185.34
2023-04-17T03:19:05.098Z,95204.69
2023-04-17T03:22:13.538Z,95198.88
2023-04-17T03:25:22.647Z,95195.84
2023-04-17T03:28:34.110Z,95198.19
2023-04-17T03:31:44.925Z,95196.22
2023-04-17T03:34:53.397Z,95197.66
2023-04-17T03:38:02.038Z,95203.44
2023-04-17T03:41:11.241Z,95208.22
2023-04-17T03:44:19.980Z,95203.78
2023-04-17T03:47:30.522Z,95201.78
2023-04-17T03:50:39.214Z,95215.53
2023-04-17T03:53:47.473Z,95207.47
2023-04-17T03:56:57.642Z,95208.75
2023-04-17T04:00:10.474Z,95212.06
2023-04-17T04:03:32.008Z,95205.25
2023-04-17T04:06:42.760Z,95212.75
2023-04-17T04:09:55.930Z,95212.34
2023-04-17T04:13:04.823Z,95210.59
2023-04-17T04:16:13.597Z,95210.31
2023-04-17T04:19:24.158Z,95196.16
2023-04-17T04:22:34.834Z,95198.78
2023-04-17T04:25:43.624Z,95198.59
2023-04-17T04:29:02.126Z,95204.84
2023-04-17T04:32:18.119Z,95208.50
2023-04-17T04:35:33.776Z,95205.66
2023-04-17T04:38:42.164Z,95204.91
2023-04-17T04:42:06.142Z,95198.75
2023-04-17T04:45:25.821Z,95207.75
2023-04-17T04:48:34.827Z,95208.50
2023-04-17T04:51:45.079Z,95207.75
2023-04-17T04:54:54.392Z,95214.91
2023-04-17T04:58:03.078Z,95225.69
2023-04-17T05:01:12.217Z,95223.28
2023-04-17T05:04:25.529Z,95230.31
2023-04-17T05:07:39.971Z,95249.44
2023-04-17T05:10:52.670Z,95244.84
2023-04-17T05:14:01.146Z,95256.78
2023-04-17T05:17:12.636Z,95253.75
2023-04-17T05:20:21.834Z,95258.50
2023-04-17T05:23:37.029Z,95247.38
2023-04-17T05:26:47.337Z,95260.94
2023-04-17T05:29:55.504Z,95260.94
2023-04-17T05:33:04.171Z,95263.22
2023-04-17T05:36:24.988Z,95261.81
2023-04-17T05:39:38.529Z,95265.41
2023-04-17T05:42:47.142Z,95267.72
2023-04-17T05:45:55.831Z,95261.59
2023-04-17T05:49:05.266Z,95258.81
2023-04-17T05:52:13.643Z,95257.44
2023-04-17T05:55:26.935Z,95256.78
2023-04-17T05:58:38.598Z,95250.56
2023-04-17T06:01:48.855Z,95259.53
2023-04-17T06:05:02.326Z,95252.13
2023-04-17T06:08:11.586Z,95261.41
2023-04-17T06:11:23.270Z,95255.16
2023-04-17T06:14:32.358Z,95255.84
2023-04-17T06:17:43.209Z,95261.56
2023-04-17T06:20:52.068Z,95266.03
2023-04-17T06:24:02.233Z,95267.84
2023-04-17T06:27:12.099Z,95269.50
2023-04-17T06:30:22.530Z,95270.53
2023-04-17T06:33:35.227Z,95270.56
2023-04-17T06:36:46.364Z,95273.22
2023-04-17T06:39:57.325Z,95282.84
2023-04-17T06:43:07.491Z,95279.22
2023-04-17T06:46:20.430Z,95280.19
2023-04-17T06:49:29.294Z,95288.13
2023-04-17T06:52:37.896Z,95277.72
2023-04-17T06:55:46.787Z,95283.19
2023-04-17T06:58:57.993Z,95285.50
2023-04-17T07:02:07.080Z,95286.63
2023-04-17T07:05:15.943Z,95290.09
2023-04-17T07:08:24.215Z,95292.25
2023-04-17T07:11:34.762Z,95294.38
2023-04-17T07:14:48.594Z,95299.84
2023-04-17T07:18:01.284Z,95295.06
2023-04-17T07:21:10.307Z,95298.84
2023-04-17T07:24:19.173Z,95292.09
2023-04-17T07:27:28.164Z,95293.06
2023-04-17T07:34:14.217Z,95292.06
2023-04-17T07:37:22.564Z,95298.66
2023-04-17T07:40:33.500Z,95294.38
2023-04-17T07:43:42.093Z,95305.91
2023-04-17T07:46:50.446Z,95302.25
2023-04-17T07:50:01.893Z,95308.88
2023-04-17T07:53:10.143Z,95308.56
2023-04-17T07:56:18.547Z,95312.25
2023-04-17T07:59:29.753Z,95323.13
2023-04-17T08:02:38.341Z,95311.31
2023-04-17T08:05:48.141Z,95314.09
2023-04-17T08:08:56.862Z,95322.25
2023-04-17T08:12:06.413Z,95318.91
2023-04-17T08:15:14.655Z,95324.03
2023-04-17T08:18:23.089Z,95325.19
2023-04-17T08:21:33.306Z,95324.03
2023-04-17T08:24:42.742Z,95325.03
2023-04-17T08:27:51.620Z,95337.41
2023-04-17T08:31:00.233Z,95330.03
2023-04-17T08:34:14.955Z,95332.50
2023-04-17T08:37:28.421Z,95329.63
2023-04-17T08:40:37.058Z,95336.72
2023-04-17T08:43:49.919Z,95335.31
2023-04-17T08:46:59.217Z,95332.44
2023-04-17T08:50:13.736Z,95338.75
2023-04-17T08:53:23.673Z,95335.72
2023-04-17T08:56:31.976Z,95334.84
2023-04-17T08:59:40.604Z,95339.69
2023-04-17T09:02:57.511Z,95339.66
2023-04-17T09:06:06.856Z,95345.50
2023-04-17T09:09:17.349Z,95349.09
2023-04-17T09:12:27.522Z,95348.59
2023-04-17T09:15:37.280Z,95350.97
2023-04-17T09:18:46.450Z,95350.34
2023-04-17T09:21:56.210Z,95343.19
2023-04-17T09:25:16.998Z,95340.88
2023-04-17T09:28:26.440Z,95345.81
2023-04-17T09:31:36.475Z,95341.53
2023-04-17T09:34:46.080Z,95334.47
2023-04-17T09:37:59.412Z,95336.75
2023-04-17T09:41:25.428Z,95335.25
2023-04-17T09:44:36.900Z,95333.44
2023-04-17T09:47:48.816Z,95332.56
2023-04-17T09:50:58.720Z,95337.38
2023-04-17T09:54:10.223Z,95330.03
2023-04-17T09:57:21.065Z,95332.97
2023-04-17T10:00:30.373Z,95333.81
2023-04-17T10:03:40.112Z,95343.25
2023-04-17T10:06:49.425Z,95333.53
2023-04-17T10:09:57.939Z,95331.34
2023-04-17T10:13:12.804Z,95328.41
2023-04-17T10:16:21.481Z,95334.69
2023-04-17T10:19:33.262Z,95329.13
2023-04-17T10:22:42.200Z,95330.75
2023-04-17T10:25:50.653Z,95323.31
2023-04-17T10:29:00.495Z,95327.22
2023-04-17T10:32:18.349Z,95333.97
2023-04-17T10:35:39.348Z,95330.63
2023-04-17T10:38:48.034Z,95329.19
2023-04-17T10:42:08.105Z,95325.03
2023-04-17T10:45:21.272Z,95322.03
2023-04-17T10:48:35.032Z,95320.72
2023-04-17T10:51:44.642Z,95317.50
2023-04-17T10:55:05.184Z,95313.78
2023-04-17T10:58:15.392Z,95315.78
2023-04-17T11:01:29.595Z,95310.44
2023-04-17T11:04:38.095Z,95309.31
2023-04-17T11:07:50.758Z,95311.50
2023-04-17T11:10:59.291Z,95303.38
2023-04-17T11:14:12.786Z,95307.84
2023-04-17T11:17:24.247Z,95302.78
2023-04-17T11:20:34.438Z,95305.44
2023-04-17T11:23:52.383Z,95302.81
2023-04-17T11:27:04.023Z,95295.06
2023-04-17T11:30:14.964Z,95296.53
2023-04-17T11:33:24.888Z,95305.72
2023-04-17T11:36:34.513Z,95299.09
2023-04-17T11:39:44.816Z,95294.75
2023-04-17T11:42:53.207Z,95293.00
2023-04-17T11:46:03.525Z,95303.06
2023-04-17T11:49:13.575Z,95300.28
2023-04-17T11:52:23.176Z,95288.69
2023-04-17T11:55:31.806Z,95295.22
2023-04-17T11:58:48.155Z,95285.66
2023-04-17T12:01:56.733Z,95287.66
2023-04-17T12:05:17.701Z,95288.53
2023-04-17T12:08:26.489Z,95286.56
2023-04-17T12:11:35.982Z,95288.16
2023-04-17T12:14:45.136Z,95286.16
2023-04-17T12:17:53.330Z,95279.56
2023-04-17T12:21:02.817Z,95281.16
2023-04-17T12:24:11.580Z,95275.84
2023-04-17T12:27:19.990Z,95279.59
2023-04-17T12:30:29.427Z,95280.59
2023-04-17T12:33:38.968Z,95279.72
2023-04-17T12:36:50.528Z,95281.09
2023-04-17T12:39:59.365Z,95266.75
2023-04-17T12:43:08.378Z,95278.13
2023-04-17T12:46:16.873Z,95272.81
2023-04-17T12:49:25.446Z,95272.59
2023-04-17T12:52:35.900Z,95265.13
2023-04-17T12:55:45.437Z,95266.78
2023-04-17T12:58:53.729Z,95261.75
2023-04-17T13:02:02.043Z,95260.59
2023-04-17T13:05:10.716Z,95253.13
2023-04-17T13:08:20.307Z,95246.34
2023-04-17T13:11:28.383Z,95241.59
2023-04-17T13:14:38.176Z,95240.75
2023-04-17T13:17:46.615Z,95238.09
2023-04-17T13:20:55.944Z,95234.78
2023-04-17T13:24:06.737Z,95228.63
2023-04-17T13:27:15.029Z,95231.25
2023-04-17T13:30:23.748Z,95224.25
2023-04-17T13:33:31.770Z,95220.34
2023-04-17T13:36:40.177Z,95217.88
2023-04-17T13:43:01.539Z,95212.84
2023-04-17T13:46:10.257Z,95215.81
2023-04-17T13:49:20.730Z,95213.03
2023-04-17T13:52:28.862Z,95209.28
2023-04-17T13:55:38.392Z,95204.50
2023-04-17T13:58:47.890Z,95203.25
2023-04-17T14:01:56.566Z,95197.53
2023-04-17T14:05:05.650Z,95197.34
2023-04-17T14:08:14.278Z,95195.47
2023-04-17T14:11:25.023Z,95192.28
2023-04-17T14:14:33.286Z,95192.97
2023-04-17T14:17:43.171Z,95182.44
2023-04-17T14:20:53.476Z,95189.72
2023-04-17T14:24:01.745Z,95186.69
2023-04-17T14:27:11.393Z,95191.13
2023-04-17T14:30:19.640Z,95193.47
2023-04-17T14:33:27.747Z,95190.97
2023-04-17T14:36:36.560Z,95189.28
2023-04-17T14:39:44.988Z,95199.41
2023-04-17T14:42:54.905Z,95195.50
2023-04-17T14:46:03.462Z,95192.66
2023-04-17T14:49:11.776Z,95190.81
2023-04-17T14:52:20.100Z,95193.81
2023-04-17T14:55:28.365Z,95184.84
2023-04-17T14:58:39.050Z,95176.00
2023-04-17T15:01:47.905Z,95185.06
2023-04-17T15:04:56.401Z,95176.47
2023-04-17T15:08:05.200Z,95183.25
2023-04-17T15:11:14.040Z,95171.94
2023-04-17T15:14:23.585Z,95174.41
2023-04-17T15:17:31.837Z,95179.34
2023-04-17T15:20:40.147Z,95172.78
2023-04-17T15:23:48.538Z,95174.00
2023-04-17T15:26:57.246Z,95181.56
2023-04-17T15:30:09.594Z,95180.75
2023-04-17T15:33:18.264Z,95183.63
2023-04-17T15:36:32.564Z,95179.94
2023-04-17T15:39:41.048Z,95186.09
2023-04-17T15:42:49.652Z,95181.16
2023-04-17T15:46:02.329Z,95175.78
2023-04-17T15:49:11.011Z,95175.53
2023-04-17T15:52:19.206Z,95172.25
2023-04-17T15:55:27.465Z,95170.16
2023-04-17T15:58:35.912Z,95173.41
2023-04-17T16:01:47.480Z,95181.66
2023-04-17T16:04:56.148Z,95170.28
2023-04-17T16:08:04.371Z,95165.47
2023-04-17T16:11:13.922Z,95172.25
2023-04-17T16:14:22.661Z,95174.00
2023-04-17T16:17:32.213Z,95171.38
2023-04-17T16:20:40.367Z,95171.69
2023-04-17T16:23:49.677Z,95171.38
2023-04-17T16:27:01.086Z,95166.31
2023-04-17T16:30:11.673Z,95176.03
2023-04-17T16:33:21.248Z,95169.88
2023-04-17T16:36:30.308Z,95173.78
2023-04-17T16:39:39.361Z,95177.47
2023-04-17T16:42:47.521Z,95181.56
2023-04-17T16:45:55.988Z,95180.25
2023-04-17T16:49:10.094Z,95179.22
2023-04-17T16:52:18.309Z,95176.69
2023-04-17T16:55:26.815Z,95185.25
2023-04-17T16:58:35.092Z,95181.91
2023-04-17T17:01:43.239Z,95196.09
2023-04-17T17:04:53.038Z,95190.13
2023-04-17T17:08:01.463Z,95200.94
2023-04-17T17:11:09.751Z,95196.34
2023-04-17T17:14:18.067Z,95205.44
2023-04-17T17:17:26.494Z,95205.91
2023-04-17T17:20:36.232Z,95210.63
2023-04-17T17:23:45.509Z,95212.59
2023-04-17T17:26:53.771Z,95215.63
2023-04-17T17:30:02.144Z,95212.59
2023-04-17T17:33:10.939Z,95215.22
2023-04-17T17:36:21.513Z,95220.75
2023-04-17T17:39:29.837Z,95223.00
2023-04-17T17:42:38.314Z,95226.78
2023-04-17T17:45:46.969Z,95225.56
2023-04-17T17:48:55.472Z,95221.66
2023-04-17T17:52:05.388Z,95223.66
2023-04-17T17:55:17.277Z,95229.31
2023-04-17T17:58:27.456Z,95230.41
2023-04-17T18:01:35.692Z,95230.88
2023-04-17T18:04:44.241Z,95237.56
2023-04-17T18:07:54.072Z,95227.69
2023-04-17T18:11:03.229Z,95239.25
2023-04-17T18:14:11.658Z,95240.53
2023-04-17T18:17:19.889Z,95237.47
2023-04-17T18:20:28.171Z,95241.47
2023-04-17T18:23:37.761Z,95245.56
2023-04-17T18:26:45.902Z,95244.84
2023-04-17T18:29:54.291Z,95241.75
2023-04-17T18:33:02.556Z,95246.19
2023-04-17T18:36:11.347Z,95247.78
2023-04-17T18:39:21.612Z,95247.66
2023-04-17T18:42:29.839Z,95257.44
2023-04-17T18:45:38.576Z,95255.00
2023-04-17T18:48:46.843Z,95261.72
2023-04-17T18:51:55.094Z,95262.59
2023-04-17T18:55:07.287Z,95268.81
2023-04-17T18:58:15.624Z,95263.19
2023-04-17T19:01:24.004Z,95269.50
2023-04-17T19:04:32.295Z,95279.47
2023-04-17T19:07:40.868Z,95268.66
2023-04-17T19:10:51.632Z,95264.72
2023-04-17T19:13:59.759Z,95261.91
2023-04-17T19:17:07.967Z,95261.19
2023-04-17T19:20:16.983Z,95259.50
2023-04-17T19:23:25.953Z,95260.25
2023-04-17T19:26:36.917Z,95266.31
2023-04-17T19:29:45.363Z,95272.94
2023-04-17T19:32:53.635Z,95271.16
2023-04-17T19:36:02.958Z,95272.00
2023-04-17T19:39:11.653Z,95274.66
2023-04-17T19:42:21.459Z,95272.84
2023-04-17T19:45:29.934Z,95265.38
2023-04-17T19:48:38.886Z,95263.84
2023-04-17T19:51:47.507Z,95268.59
2023-04-17T19:54:55.766Z,95255.78
2023-04-17T19:58:05.246Z,95259.13
2023-04-17T20:01:13.614Z,95258.56
2023-04-17T20:04:22.017Z,95250.34
2023-04-17T20:07:31.083Z,95250.56
2023-04-17T20:10:39.815Z,95244.09
2023-04-17T20:13:51.670Z,95250.69
2023-04-17T20:17:00.371Z,95242.06
2023-04-17T20:20:10.385Z,95249.97
2023-04-17T20:23:18.942Z,95244.81
2023-04-17T20:26:27.166Z,95245.28
2023-04-17T20:29:36.876Z,95248.06
2023-04-17T20:32:46.074Z,95239.91
2023-04-17T20:35:54.419Z,95247.13
2023-04-17T20:39:02.567Z,95237.31
2023-04-17T20:42:12.159Z,95244.97
2023-04-17T20:45:22.404Z,95241.06
2023-04-17T20:48:31.009Z,95244.25
2023-04-17T20:51:39.548Z,95244.31
2023-04-17T20:54:47.944Z,95244.69
2023-04-17T20:57:56.042Z,95252.56
2023-04-17T21:01:05.984Z,95248.78
2023-04-17T21:04:14.389Z,95245.53
2023-04-17T21:07:22.797Z,95247.72
2023-04-17T21:10:31.076Z,95263.03
2023-04-17T21:13:39.274Z,95262.34
2023-04-17T21:16:54.528Z,95256.13
2023-04-17T21:20:05.373Z,95252.59
2023-04-17T21:23:14.078Z,95247.53
2023-04-17T21:26:22.274Z,95246.38
2023-04-17T21:29:30.695Z,95242.56
2023-04-17T21:32:42.225Z,95246.72
2023-04-17T21:35:51.089Z,95240.09
2023-04-17T21:38:59.677Z,95241.91
2023-04-17T21:42:09.749Z,95235.91
2023-04-17T21:45:18.112Z,95231.59
2023-04-17T21:48:29.118Z,95233.41
2023-04-17T21:51:37.447Z,95239.66
2023-04-17T21:54:45.943Z,95236.69
2023-04-17T21:57:54.230Z,95229.88
2023-04-17T22:01:07.785Z,95228.69
2023-04-17T22:04:17.353Z,95228.22
2023-04-17T22:07:25.452Z,95229.75
2023-04-17T22:10:33.849Z,95229.75
2023-04-17T22:13:42.846Z,95231.22
2023-04-17T22:16:50.960Z,95231.38
2023-04-17T22:20:01.020Z,95230.09
2023-04-17T22:23:09.266Z,95228.13
2023-04-17T22:26:17.416Z,95228.50
2023-04-17T22:29:25.503Z,95224.03
2023-04-17T22:32:36.055Z,95222.75
2023-04-17T22:35:45.858Z,95232.16
2023-04-17T22:38:54.274Z,95224.84
2023-04-17T22:42:02.718Z,95223.97
2023-04-17T22:45:11.382Z,95228.06
2023-04-17T22:48:19.734Z,95226.44
2023-04-17T22:51:31.196Z,95224.28
2023-04-17T22:54:39.508Z,95231.59
2023-04-17T22:57:47.855Z,95231.94
2023-04-17T23:00:56.387Z,95231.25
2023-04-17T23:04:05.021Z,95223.31
2023-04-17T23:07:14.679Z,95220.31
2023-04-17T23:10:22.987Z,95228.66
2023-04-17T23:13:31.877Z,95223.44
2023-04-17T23:16:40.390Z,95226.16
2023-04-17T23:19:48.647Z,95219.25
2023-04-17T23:22:58.321Z,95225.53
2023-04-17T23:26:06.520Z,95230.53
2023-04-17T23:29:14.842Z,95220.25
2023-04-17T23:32:23.650Z,95217.59
2023-04-17T23:35:32.111Z,95215.91
2023-04-17T23:38:42.002Z,95218.91
2023-04-17T23:41:50.395Z,95210.09
2023-04-17T23:44:58.632Z,95210.56
2023-04-17T23:48:07.165Z,95208.13
2023-04-17T23:51:15.453Z,95203.78
2023-04-17T23:54:26.041Z,95198.03
2023-04-17T23:57:37.705Z,95204.00
